sensor_id;sensor_type;location;lat;lon;timestamp;P1;durP1;ratioP1;P2;durP2;ratioP2
84293;SDS011;74463;51.182;3.210;2024-01-27T00:01:33;15.02;;;8.10;;
84293;SDS011;74463;51.182;3.210;2024-01-27T00:04:01;17.15;;;8.00;;
84293;SDS011;74463;51.182;3.210;2024-01-27T00:06:28;20.20;;;7.85;;
84293;SDS011;74463;51.182;3.210;2024-01-27T00:08:58;17.75;;;8.10;;
84293;SDS011;74463;51.182;3.210;2024-01-27T00:11:25;26.38;;;7.70;;
84293;SDS011;74463;51.182;3.210;2024-01-27T00:13:53;14.10;;;7.63;;
84293;SDS011;74463;51.182;3.210;2024-01-27T00:16:20;16.20;;;7.78;;
84293;SDS011;74463;51.182;3.210;2024-01-27T00:18:48;19.60;;;8.30;;
84293;SDS011;74463;51.182;3.210;2024-01-27T00:21:15;15.52;;;8.15;;
84293;SDS011;74463;51.182;3.210;2024-01-27T00:23:43;20.85;;;8.88;;
84293;SDS011;74463;51.182;3.210;2024-01-27T00:26:12;19.10;;;7.88;;
84293;SDS011;74463;51.182;3.210;2024-01-27T00:28:39;17.42;;;7.72;;
84293;SDS011;74463;51.182;3.210;2024-01-27T00:31:07;13.70;;;7.95;;
84293;SDS011;74463;51.182;3.210;2024-01-27T00:33:34;16.00;;;8.27;;
84293;SDS011;74463;51.182;3.210;2024-01-27T00:36:02;19.27;;;8.25;;
84293;SDS011;74463;51.182;3.210;2024-01-27T00:38:30;17.75;;;8.55;;
84293;SDS011;74463;51.182;3.210;2024-01-27T00:40:57;12.55;;;8.40;;
84293;SDS011;74463;51.182;3.210;2024-01-27T00:43:26;18.35;;;9.05;;
84293;SDS011;74463;51.182;3.210;2024-01-27T00:45:54;19.30;;;9.30;;
84293;SDS011;74463;51.182;3.210;2024-01-27T00:48:21;14.50;;;9.25;;
84293;SDS011;74463;51.182;3.210;2024-01-27T00:50:49;14.52;;;8.77;;
84293;SDS011;74463;51.182;3.210;2024-01-27T00:53:16;16.25;;;9.65;;
84293;SDS011;74463;51.182;3.210;2024-01-27T00:55:43;14.05;;;8.07;;
84293;SDS011;74463;51.182;3.210;2024-01-27T00:58:11;18.10;;;8.57;;
84293;SDS011;74463;51.182;3.210;2024-01-27T01:00:40;20.30;;;9.57;;
84293;SDS011;74463;51.182;3.210;2024-01-27T01:03:07;21.50;;;9.73;;
84293;SDS011;74463;51.182;3.210;2024-01-27T01:05:34;13.30;;;8.45;;
84293;SDS011;74463;51.182;3.210;2024-01-27T01:08:02;23.23;;;9.75;;
84293;SDS011;74463;51.182;3.210;2024-01-27T01:10:31;18.75;;;8.70;;
84293;SDS011;74463;51.182;3.210;2024-01-27T01:12:59;18.65;;;9.25;;
84293;SDS011;74463;51.182;3.210;2024-01-27T01:15:26;24.60;;;9.00;;
84293;SDS011;74463;51.182;3.210;2024-01-27T01:17:55;18.90;;;9.18;;
84293;SDS011;74463;51.182;3.210;2024-01-27T01:20:22;17.65;;;10.23;;
84293;SDS011;74463;51.182;3.210;2024-01-27T01:22:51;20.73;;;9.60;;
84293;SDS011;74463;51.182;3.210;2024-01-27T01:25:18;20.02;;;9.15;;
84293;SDS011;74463;51.182;3.210;2024-01-27T01:27:46;19.88;;;9.40;;
84293;SDS011;74463;51.182;3.210;2024-01-27T01:30:15;18.02;;;8.63;;
84293;SDS011;74463;51.182;3.210;2024-01-27T01:32:43;19.05;;;9.90;;
84293;SDS011;74463;51.182;3.210;2024-01-27T01:35:12;16.20;;;8.82;;
84293;SDS011;74463;51.182;3.210;2024-01-27T01:37:39;22.17;;;10.35;;
84293;SDS011;74463;51.182;3.210;2024-01-27T01:40:07;19.73;;;10.45;;
84293;SDS011;74463;51.182;3.210;2024-01-27T01:42:35;16.08;;;9.13;;
84293;SDS011;74463;51.182;3.210;2024-01-27T01:45:03;17.88;;;7.55;;
84293;SDS011;74463;51.182;3.210;2024-01-27T01:47:31;19.20;;;8.40;;
84293;SDS011;74463;51.182;3.210;2024-01-27T01:49:59;16.52;;;7.78;;
84293;SDS011;74463;51.182;3.210;2024-01-27T01:52:28;16.02;;;7.70;;
84293;SDS011;74463;51.182;3.210;2024-01-27T01:54:55;21.33;;;7.78;;
84293;SDS011;74463;51.182;3.210;2024-01-27T01:57:23;19.25;;;7.93;;
84293;SDS011;74463;51.182;3.210;2024-01-27T01:59:50;18.30;;;7.65;;
84293;SDS011;74463;51.182;3.210;2024-01-27T02:02:18;14.35;;;6.90;;
84293;SDS011;74463;51.182;3.210;2024-01-27T02:04:46;15.95;;;7.88;;
84293;SDS011;74463;51.182;3.210;2024-01-27T02:07:13;16.67;;;7.93;;
84293;SDS011;74463;51.182;3.210;2024-01-27T02:09:43;19.92;;;7.88;;
84293;SDS011;74463;51.182;3.210;2024-01-27T02:12:10;16.60;;;8.48;;
84293;SDS011;74463;51.182;3.210;2024-01-27T02:14:38;19.08;;;8.23;;
84293;SDS011;74463;51.182;3.210;2024-01-27T02:17:05;18.55;;;8.63;;
84293;SDS011;74463;51.182;3.210;2024-01-27T02:19:33;22.10;;;7.40;;
84293;SDS011;74463;51.182;3.210;2024-01-27T02:22:00;17.85;;;8.13;;
84293;SDS011;74463;51.182;3.210;2024-01-27T02:24:29;18.73;;;8.20;;
84293;SDS011;74463;51.182;3.210;2024-01-27T02:26:57;16.83;;;7.78;;
84293;SDS011;74463;51.182;3.210;2024-01-27T02:29:24;17.20;;;8.70;;
84293;SDS011;74463;51.182;3.210;2024-01-27T02:31:53;17.13;;;7.35;;
84293;SDS011;74463;51.182;3.210;2024-01-27T02:34:21;13.98;;;7.88;;
84293;SDS011;74463;51.182;3.210;2024-01-27T02:36:48;17.13;;;7.55;;
84293;SDS011;74463;51.182;3.210;2024-01-27T02:39:16;23.83;;;7.22;;
84293;SDS011;74463;51.182;3.210;2024-01-27T02:41:45;12.40;;;6.57;;
84293;SDS011;74463;51.182;3.210;2024-01-27T02:44:12;15.73;;;7.25;;
84293;SDS011;74463;51.182;3.210;2024-01-27T02:46:40;16.67;;;6.97;;
84293;SDS011;74463;51.182;3.210;2024-01-27T02:49:09;14.50;;;7.00;;
84293;SDS011;74463;51.182;3.210;2024-01-27T02:51:37;14.90;;;7.20;;
84293;SDS011;74463;51.182;3.210;2024-01-27T02:54:04;12.90;;;6.50;;
84293;SDS011;74463;51.182;3.210;2024-01-27T02:56:32;16.65;;;7.30;;
84293;SDS011;74463;51.182;3.210;2024-01-27T02:59:01;17.65;;;6.65;;
84293;SDS011;74463;51.182;3.210;2024-01-27T03:01:28;13.23;;;6.50;;
84293;SDS011;74463;51.182;3.210;2024-01-27T03:03:55;17.40;;;6.57;;
84293;SDS011;74463;51.182;3.210;2024-01-27T03:06:23;19.95;;;6.47;;
84293;SDS011;74463;51.182;3.210;2024-01-27T03:08:50;12.45;;;6.80;;
84293;SDS011;74463;51.182;3.210;2024-01-27T03:11:18;15.32;;;6.15;;
84293;SDS011;74463;51.182;3.210;2024-01-27T03:13:45;15.32;;;6.28;;
84293;SDS011;74463;51.182;3.210;2024-01-27T03:16:14;16.77;;;6.78;;
84293;SDS011;74463;51.182;3.210;2024-01-27T03:18:43;11.82;;;6.03;;
84293;SDS011;74463;51.182;3.210;2024-01-27T03:21:11;17.05;;;6.88;;
84293;SDS011;74463;51.182;3.210;2024-01-27T03:23:38;10.63;;;5.55;;
84293;SDS011;74463;51.182;3.210;2024-01-27T03:26:06;12.02;;;6.85;;
84293;SDS011;74463;51.182;3.210;2024-01-27T03:28:33;20.58;;;7.80;;
84293;SDS011;74463;51.182;3.210;2024-01-27T03:31:00;13.57;;;6.22;;
84293;SDS011;74463;51.182;3.210;2024-01-27T03:33:29;15.50;;;5.88;;
84293;SDS011;74463;51.182;3.210;2024-01-27T03:35:56;12.00;;;6.68;;
84293;SDS011;74463;51.182;3.210;2024-01-27T03:38:24;12.00;;;6.63;;
84293;SDS011;74463;51.182;3.210;2024-01-27T03:40:51;10.20;;;6.18;;
84293;SDS011;74463;51.182;3.210;2024-01-27T03:43:19;18.77;;;6.38;;
84293;SDS011;74463;51.182;3.210;2024-01-27T03:45:46;12.65;;;6.43;;
84293;SDS011;74463;51.182;3.210;2024-01-27T03:48:14;14.18;;;6.40;;
84293;SDS011;74463;51.182;3.210;2024-01-27T03:50:42;15.02;;;6.03;;
84293;SDS011;74463;51.182;3.210;2024-01-27T03:53:10;16.77;;;6.22;;
84293;SDS011;74463;51.182;3.210;2024-01-27T03:55:37;11.93;;;6.35;;
84293;SDS011;74463;51.182;3.210;2024-01-27T03:58:05;12.10;;;5.93;;
84293;SDS011;74463;51.182;3.210;2024-01-27T04:00:33;14.57;;;6.20;;
84293;SDS011;74463;51.182;3.210;2024-01-27T04:03:00;11.27;;;5.53;;
84293;SDS011;74463;51.182;3.210;2024-01-27T04:05:29;10.82;;;5.80;;
84293;SDS011;74463;51.182;3.210;2024-01-27T04:07:58;13.40;;;6.28;;
84293;SDS011;74463;51.182;3.210;2024-01-27T04:10:25;14.82;;;5.68;;
84293;SDS011;74463;51.182;3.210;2024-01-27T04:12:53;14.43;;;5.82;;
84293;SDS011;74463;51.182;3.210;2024-01-27T04:15:20;10.23;;;5.63;;
84293;SDS011;74463;51.182;3.210;2024-01-27T04:17:48;13.07;;;5.78;;
84293;SDS011;74463;51.182;3.210;2024-01-27T04:20:15;14.20;;;5.82;;
84293;SDS011;74463;51.182;3.210;2024-01-27T04:22:43;20.30;;;6.35;;
84293;SDS011;74463;51.182;3.210;2024-01-27T04:25:12;17.85;;;6.30;;
84293;SDS011;74463;51.182;3.210;2024-01-27T04:30:08;16.05;;;5.32;;
84293;SDS011;74463;51.182;3.210;2024-01-27T04:32:36;15.10;;;6.10;;
84293;SDS011;74463;51.182;3.210;2024-01-27T04:35:04;16.58;;;5.63;;
84293;SDS011;74463;51.182;3.210;2024-01-27T04:37:34;13.23;;;5.65;;
84293;SDS011;74463;51.182;3.210;2024-01-27T04:40:03;12.55;;;6.32;;
84293;SDS011;74463;51.182;3.210;2024-01-27T04:42:33;14.05;;;6.10;;
84293;SDS011;74463;51.182;3.210;2024-01-27T04:45:01;15.35;;;5.82;;
84293;SDS011;74463;51.182;3.210;2024-01-27T04:47:29;14.47;;;5.83;;
84293;SDS011;74463;51.182;3.210;2024-01-27T04:49:57;17.58;;;5.85;;
84293;SDS011;74463;51.182;3.210;2024-01-27T04:52:24;14.40;;;5.68;;
84293;SDS011;74463;51.182;3.210;2024-01-27T04:54:52;11.82;;;5.60;;
84293;SDS011;74463;51.182;3.210;2024-01-27T04:57:19;18.05;;;5.97;;
84293;SDS011;74463;51.182;3.210;2024-01-27T04:59:48;15.15;;;5.90;;
84293;SDS011;74463;51.182;3.210;2024-01-27T05:02:16;20.40;;;6.63;;
84293;SDS011;74463;51.182;3.210;2024-01-27T05:04:44;9.30;;;5.43;;
84293;SDS011;74463;51.182;3.210;2024-01-27T05:07:11;13.07;;;5.57;;
84293;SDS011;74463;51.182;3.210;2024-01-27T05:09:39;12.07;;;5.72;;
84293;SDS011;74463;51.182;3.210;2024-01-27T05:12:07;9.77;;;5.03;;
84293;SDS011;74463;51.182;3.210;2024-01-27T05:14:35;12.07;;;5.07;;
84293;SDS011;74463;51.182;3.210;2024-01-27T05:17:04;17.63;;;5.65;;
84293;SDS011;74463;51.182;3.210;2024-01-27T05:19:31;14.45;;;5.70;;
84293;SDS011;74463;51.182;3.210;2024-01-27T05:21:58;14.60;;;5.88;;
84293;SDS011;74463;51.182;3.210;2024-01-27T05:24:26;16.45;;;5.82;;
84293;SDS011;74463;51.182;3.210;2024-01-27T05:26:53;17.60;;;6.57;;
84293;SDS011;74463;51.182;3.210;2024-01-27T05:29:21;12.90;;;5.68;;
84293;SDS011;74463;51.182;3.210;2024-01-27T05:31:48;13.32;;;6.15;;
84293;SDS011;74463;51.182;3.210;2024-01-27T05:34:17;16.65;;;6.68;;
84293;SDS011;74463;51.182;3.210;2024-01-27T05:36:46;11.68;;;6.10;;
84293;SDS011;74463;51.182;3.210;2024-01-27T05:39:13;20.13;;;6.07;;
84293;SDS011;74463;51.182;3.210;2024-01-27T05:41:41;14.02;;;6.07;;
84293;SDS011;74463;51.182;3.210;2024-01-27T05:44:08;17.98;;;5.93;;
84293;SDS011;74463;51.182;3.210;2024-01-27T05:46:35;13.73;;;5.63;;
84293;SDS011;74463;51.182;3.210;2024-01-27T05:49:02;13.35;;;6.43;;
84293;SDS011;74463;51.182;3.210;2024-01-27T05:51:31;18.13;;;6.32;;
84293;SDS011;74463;51.182;3.210;2024-01-27T05:53:59;10.48;;;5.10;;
84293;SDS011;74463;51.182;3.210;2024-01-27T05:56:27;13.23;;;5.93;;
84293;SDS011;74463;51.182;3.210;2024-01-27T05:58:55;16.30;;;6.20;;
84293;SDS011;74463;51.182;3.210;2024-01-27T06:01:22;16.92;;;6.03;;
84293;SDS011;74463;51.182;3.210;2024-01-27T06:03:50;13.00;;;5.78;;
84293;SDS011;74463;51.182;3.210;2024-01-27T06:06:17;13.68;;;6.47;;
84293;SDS011;74463;51.182;3.210;2024-01-27T06:08:46;12.60;;;6.20;;
84293;SDS011;74463;51.182;3.210;2024-01-27T06:11:13;18.83;;;6.22;;
84293;SDS011;74463;51.182;3.210;2024-01-27T06:13:41;11.82;;;6.43;;
84293;SDS011;74463;51.182;3.210;2024-01-27T06:16:10;15.48;;;6.43;;
84293;SDS011;74463;51.182;3.210;2024-01-27T06:18:38;17.92;;;7.10;;
84293;SDS011;74463;51.182;3.210;2024-01-27T06:21:05;16.33;;;7.57;;
84293;SDS011;74463;51.182;3.210;2024-01-27T06:23:34;15.35;;;6.53;;
84293;SDS011;74463;51.182;3.210;2024-01-27T06:26:05;15.52;;;6.65;;
84293;SDS011;74463;51.182;3.210;2024-01-27T06:28:33;16.88;;;6.63;;
84293;SDS011;74463;51.182;3.210;2024-01-27T06:31:01;13.13;;;6.25;;
84293;SDS011;74463;51.182;3.210;2024-01-27T06:33:29;14.40;;;7.68;;
84293;SDS011;74463;51.182;3.210;2024-01-27T06:35:56;13.38;;;7.05;;
84293;SDS011;74463;51.182;3.210;2024-01-27T06:38:24;16.25;;;6.47;;
84293;SDS011;74463;51.182;3.210;2024-01-27T06:40:53;21.10;;;8.18;;
84293;SDS011;74463;51.182;3.210;2024-01-27T06:43:21;13.07;;;6.95;;
84293;SDS011;74463;51.182;3.210;2024-01-27T06:45:49;18.73;;;6.88;;
84293;SDS011;74463;51.182;3.210;2024-01-27T06:48:16;18.05;;;8.55;;
84293;SDS011;74463;51.182;3.210;2024-01-27T06:50:44;18.70;;;6.95;;
84293;SDS011;74463;51.182;3.210;2024-01-27T06:53:12;17.90;;;7.88;;
84293;SDS011;74463;51.182;3.210;2024-01-27T06:55:39;18.77;;;7.43;;
84293;SDS011;74463;51.182;3.210;2024-01-27T06:58:06;14.93;;;7.22;;
84293;SDS011;74463;51.182;3.210;2024-01-27T07:00:35;18.67;;;7.60;;
84293;SDS011;74463;51.182;3.210;2024-01-27T07:03:03;15.40;;;7.47;;
84293;SDS011;74463;51.182;3.210;2024-01-27T07:05:31;14.00;;;7.47;;
84293;SDS011;74463;51.182;3.210;2024-01-27T07:08:04;14.00;;;7.25;;
84293;SDS011;74463;51.182;3.210;2024-01-27T07:10:32;12.43;;;7.07;;
84293;SDS011;74463;51.182;3.210;2024-01-27T07:13:00;20.52;;;8.05;;
84293;SDS011;74463;51.182;3.210;2024-01-27T07:15:27;20.52;;;8.68;;
84293;SDS011;74463;51.182;3.210;2024-01-27T07:17:56;15.65;;;6.82;;
84293;SDS011;74463;51.182;3.210;2024-01-27T07:20:24;19.60;;;7.75;;
84293;SDS011;74463;51.182;3.210;2024-01-27T07:22:51;17.30;;;7.07;;
84293;SDS011;74463;51.182;3.210;2024-01-27T07:25:19;15.73;;;7.82;;
84293;SDS011;74463;51.182;3.210;2024-01-27T07:27:46;17.10;;;7.65;;
84293;SDS011;74463;51.182;3.210;2024-01-27T07:30:14;24.65;;;8.48;;
84293;SDS011;74463;51.182;3.210;2024-01-27T07:32:43;17.48;;;8.52;;
84293;SDS011;74463;51.182;3.210;2024-01-27T07:35:12;20.70;;;9.07;;
84293;SDS011;74463;51.182;3.210;2024-01-27T07:37:39;20.02;;;7.72;;
84293;SDS011;74463;51.182;3.210;2024-01-27T07:40:07;17.48;;;9.98;;
84293;SDS011;74463;51.182;3.210;2024-01-27T07:42:35;18.80;;;9.40;;
84293;SDS011;74463;51.182;3.210;2024-01-27T07:45:03;23.58;;;9.27;;
84293;SDS011;74463;51.182;3.210;2024-01-27T07:47:31;19.50;;;10.90;;
84293;SDS011;74463;51.182;3.210;2024-01-27T07:49:59;21.70;;;9.13;;
84293;SDS011;74463;51.182;3.210;2024-01-27T07:52:28;21.00;;;8.88;;
84293;SDS011;74463;51.182;3.210;2024-01-27T07:54:55;18.92;;;9.02;;
84293;SDS011;74463;51.182;3.210;2024-01-27T07:57:22;19.40;;;8.45;;
84293;SDS011;74463;51.182;3.210;2024-01-27T07:59:50;24.42;;;9.55;;
84293;SDS011;74463;51.182;3.210;2024-01-27T08:02:18;20.75;;;10.25;;
84293;SDS011;74463;51.182;3.210;2024-01-27T08:04:45;20.58;;;10.90;;
84293;SDS011;74463;51.182;3.210;2024-01-27T08:07:13;25.30;;;11.68;;
84293;SDS011;74463;51.182;3.210;2024-01-27T08:09:43;19.77;;;10.80;;
84293;SDS011;74463;51.182;3.210;2024-01-27T08:12:10;24.48;;;10.18;;
84293;SDS011;74463;51.182;3.210;2024-01-27T08:14:38;20.55;;;9.52;;
84293;SDS011;74463;51.182;3.210;2024-01-27T08:17:05;20.02;;;10.90;;
84293;SDS011;74463;51.182;3.210;2024-01-27T08:19:32;21.50;;;10.20;;
84293;SDS011;74463;51.182;3.210;2024-01-27T08:22:00;18.33;;;11.35;;
84293;SDS011;74463;51.182;3.210;2024-01-27T08:24:27;25.67;;;11.68;;
84293;SDS011;74463;51.182;3.210;2024-01-27T08:26:56;23.38;;;11.57;;
84293;SDS011;74463;51.182;3.210;2024-01-27T08:29:25;22.10;;;10.90;;
84293;SDS011;74463;51.182;3.210;2024-01-27T08:31:53;31.45;;;11.23;;
84293;SDS011;74463;51.182;3.210;2024-01-27T08:34:20;24.80;;;10.85;;
84293;SDS011;74463;51.182;3.210;2024-01-27T08:36:48;27.15;;;12.27;;
84293;SDS011;74463;51.182;3.210;2024-01-27T08:39:15;26.45;;;11.82;;
84293;SDS011;74463;51.182;3.210;2024-01-27T08:41:43;24.50;;;12.75;;
84293;SDS011;74463;51.182;3.210;2024-01-27T08:44:12;19.80;;;11.05;;
84293;SDS011;74463;51.182;3.210;2024-01-27T08:46:39;28.15;;;11.02;;
84293;SDS011;74463;51.182;3.210;2024-01-27T08:49:07;25.13;;;11.73;;
84293;SDS011;74463;51.182;3.210;2024-01-27T08:51:34;19.17;;;11.27;;
84293;SDS011;74463;51.182;3.210;2024-01-27T08:54:02;16.80;;;10.00;;
84293;SDS011;74463;51.182;3.210;2024-01-27T08:56:29;25.63;;;11.27;;
84293;SDS011;74463;51.182;3.210;2024-01-27T08:58:57;32.92;;;16.67;;
84293;SDS011;74463;51.182;3.210;2024-01-27T09:01:26;39.17;;;17.77;;
84293;SDS011;74463;51.182;3.210;2024-01-27T09:03:53;29.85;;;15.32;;
84293;SDS011;74463;51.182;3.210;2024-01-27T09:06:21;35.15;;;15.57;;
84293;SDS011;74463;51.182;3.210;2024-01-27T09:08:48;29.13;;;13.88;;
84293;SDS011;74463;51.182;3.210;2024-01-27T09:11:15;43.53;;;15.50;;
84293;SDS011;74463;51.182;3.210;2024-01-27T09:13:43;28.83;;;13.80;;
84293;SDS011;74463;51.182;3.210;2024-01-27T09:16:11;31.20;;;15.15;;
84293;SDS011;74463;51.182;3.210;2024-01-27T09:18:41;40.22;;;12.05;;
84293;SDS011;74463;51.182;3.210;2024-01-27T09:21:08;28.63;;;11.95;;
84293;SDS011;74463;51.182;3.210;2024-01-27T09:23:37;21.10;;;12.20;;
84293;SDS011;74463;51.182;3.210;2024-01-27T09:26:05;27.83;;;10.55;;
84293;SDS011;74463;51.182;3.210;2024-01-27T09:28:32;27.25;;;12.40;;
84293;SDS011;74463;51.182;3.210;2024-01-27T09:31:00;27.15;;;10.95;;
84293;SDS011;74463;51.182;3.210;2024-01-27T09:33:27;27.92;;;10.88;;
84293;SDS011;74463;51.182;3.210;2024-01-27T09:35:56;26.58;;;11.82;;
84293;SDS011;74463;51.182;3.210;2024-01-27T09:38:24;21.75;;;11.80;;
84293;SDS011;74463;51.182;3.210;2024-01-27T09:40:51;24.05;;;11.15;;
84293;SDS011;74463;51.182;3.210;2024-01-27T09:43:19;28.42;;;11.40;;
84293;SDS011;74463;51.182;3.210;2024-01-27T09:45:47;25.05;;;11.65;;
84293;SDS011;74463;51.182;3.210;2024-01-27T09:48:15;21.95;;;11.13;;
84293;SDS011;74463;51.182;3.210;2024-01-27T09:50:44;20.92;;;11.30;;
84293;SDS011;74463;51.182;3.210;2024-01-27T09:53:16;23.52;;;10.23;;
84293;SDS011;74463;51.182;3.210;2024-01-27T09:55:44;23.15;;;10.05;;
84293;SDS011;74463;51.182;3.210;2024-01-27T09:58:11;25.13;;;10.73;;
84293;SDS011;74463;51.182;3.210;2024-01-27T10:00:40;25.42;;;10.75;;
84293;SDS011;74463;51.182;3.210;2024-01-27T10:03:09;26.52;;;11.25;;
84293;SDS011;74463;51.182;3.210;2024-01-27T10:05:37;29.73;;;10.85;;
84293;SDS011;74463;51.182;3.210;2024-01-27T10:08:06;28.00;;;10.90;;
84293;SDS011;74463;51.182;3.210;2024-01-27T10:10:35;25.85;;;12.40;;
84293;SDS011;74463;51.182;3.210;2024-01-27T10:13:04;24.17;;;11.35;;
84293;SDS011;74463;51.182;3.210;2024-01-27T10:15:33;25.25;;;11.02;;
84293;SDS011;74463;51.182;3.210;2024-01-27T10:18:06;24.70;;;11.15;;
84293;SDS011;74463;51.182;3.210;2024-01-27T10:20:38;32.03;;;11.80;;
84293;SDS011;74463;51.182;3.210;2024-01-27T10:23:10;21.10;;;10.60;;
84293;SDS011;74463;51.182;3.210;2024-01-27T10:25:39;24.73;;;10.10;;
84293;SDS011;74463;51.182;3.210;2024-01-27T10:28:07;28.30;;;10.05;;
84293;SDS011;74463;51.182;3.210;2024-01-27T10:30:35;28.23;;;11.55;;
84293;SDS011;74463;51.182;3.210;2024-01-27T10:33:03;21.13;;;9.55;;
84293;SDS011;74463;51.182;3.210;2024-01-27T10:35:31;27.38;;;9.35;;
84293;SDS011;74463;51.182;3.210;2024-01-27T10:37:59;24.35;;;10.30;;
84293;SDS011;74463;51.182;3.210;2024-01-27T10:40:26;24.77;;;10.27;;
84293;SDS011;74463;51.182;3.210;2024-01-27T10:43:00;21.17;;;9.68;;
84293;SDS011;74463;51.182;3.210;2024-01-27T10:45:29;23.10;;;9.85;;
84293;SDS011;74463;51.182;3.210;2024-01-27T10:48:02;26.48;;;9.65;;
84293;SDS011;74463;51.182;3.210;2024-01-27T10:50:32;22.98;;;9.07;;
84293;SDS011;74463;51.182;3.210;2024-01-27T10:53:03;24.83;;;9.13;;
84293;SDS011;74463;51.182;3.210;2024-01-27T10:55:32;19.08;;;9.13;;
84293;SDS011;74463;51.182;3.210;2024-01-27T10:58:03;22.83;;;8.88;;
84293;SDS011;74463;51.182;3.210;2024-01-27T11:00:31;23.35;;;8.65;;
84293;SDS011;74463;51.182;3.210;2024-01-27T11:02:59;16.83;;;8.00;;
84293;SDS011;74463;51.182;3.210;2024-01-27T11:05:30;25.73;;;8.75;;
84293;SDS011;74463;51.182;3.210;2024-01-27T11:08:00;21.45;;;7.72;;
84293;SDS011;74463;51.182;3.210;2024-01-27T11:10:28;28.23;;;8.73;;
84293;SDS011;74463;51.182;3.210;2024-01-27T11:13:03;20.45;;;10.07;;
84293;SDS011;74463;51.182;3.210;2024-01-27T11:15:32;19.17;;;8.77;;
84293;SDS011;74463;51.182;3.210;2024-01-27T11:17:59;20.63;;;9.17;;
84293;SDS011;74463;51.182;3.210;2024-01-27T11:20:30;23.60;;;8.68;;
84293;SDS011;74463;51.182;3.210;2024-01-27T11:25:45;23.20;;;8.32;;
84293;SDS011;74463;51.182;3.210;2024-01-27T11:28:25;19.05;;;8.65;;
84293;SDS011;74463;51.182;3.210;2024-01-27T11:31:03;20.58;;;8.20;;
84293;SDS011;74463;51.182;3.210;2024-01-27T11:33:33;19.80;;;7.70;;
84293;SDS011;74463;51.182;3.210;2024-01-27T11:36:21;20.80;;;8.45;;
84293;SDS011;74463;51.182;3.210;2024-01-27T11:38:55;22.08;;;7.75;;
84293;SDS011;74463;51.182;3.210;2024-01-27T11:41:26;20.20;;;8.75;;
84293;SDS011;74463;51.182;3.210;2024-01-27T11:43:55;16.80;;;7.00;;
84293;SDS011;74463;51.182;3.210;2024-01-27T11:46:29;20.42;;;7.90;;
84293;SDS011;74463;51.182;3.210;2024-01-27T11:48:57;28.65;;;9.90;;
84293;SDS011;74463;51.182;3.210;2024-01-27T11:51:24;16.65;;;6.70;;
84293;SDS011;74463;51.182;3.210;2024-01-27T11:54:08;17.90;;;6.75;;
84293;SDS011;74463;51.182;3.210;2024-01-27T11:56:38;21.83;;;7.75;;
84293;SDS011;74463;51.182;3.210;2024-01-27T11:59:13;18.73;;;6.90;;
84293;SDS011;74463;51.182;3.210;2024-01-27T12:01:43;18.23;;;6.93;;
84293;SDS011;74463;51.182;3.210;2024-01-27T12:04:20;24.42;;;7.47;;
84293;SDS011;74463;51.182;3.210;2024-01-27T12:06:48;19.05;;;7.07;;
84293;SDS011;74463;51.182;3.210;2024-01-27T12:09:30;17.75;;;6.57;;
84293;SDS011;74463;51.182;3.210;2024-01-27T12:12:16;19.05;;;6.20;;
84293;SDS011;74463;51.182;3.210;2024-01-27T12:14:50;15.27;;;7.18;;
84293;SDS011;74463;51.182;3.210;2024-01-27T12:17:18;19.92;;;7.07;;
84293;SDS011;74463;51.182;3.210;2024-01-27T12:19:46;22.75;;;8.98;;
84293;SDS011;74463;51.182;3.210;2024-01-27T12:22:21;21.63;;;7.07;;
84293;SDS011;74463;51.182;3.210;2024-01-27T12:24:51;16.90;;;6.53;;
84293;SDS011;74463;51.182;3.210;2024-01-27T12:27:21;19.30;;;6.32;;
84293;SDS011;74463;51.182;3.210;2024-01-27T12:29:52;17.85;;;7.20;;
84293;SDS011;74463;51.182;3.210;2024-01-27T12:32:23;18.20;;;6.93;;
84293;SDS011;74463;51.182;3.210;2024-01-27T12:34:51;21.63;;;7.07;;
84293;SDS011;74463;51.182;3.210;2024-01-27T12:37:20;18.17;;;6.28;;
84293;SDS011;74463;51.182;3.210;2024-01-27T12:39:48;19.30;;;7.28;;
84293;SDS011;74463;51.182;3.210;2024-01-27T12:42:17;21.35;;;6.28;;
84293;SDS011;74463;51.182;3.210;2024-01-27T12:44:45;19.67;;;6.43;;
84293;SDS011;74463;51.182;3.210;2024-01-27T12:47:14;20.20;;;6.75;;
84293;SDS011;74463;51.182;3.210;2024-01-27T12:52:09;16.58;;;5.97;;
84293;SDS011;74463;51.182;3.210;2024-01-27T12:54:37;19.10;;;6.45;;
84293;SDS011;74463;51.182;3.210;2024-01-27T12:57:04;19.50;;;8.50;;
84293;SDS011;74463;51.182;3.210;2024-01-27T12:59:34;25.38;;;8.93;;
84293;SDS011;74463;51.182;3.210;2024-01-27T13:02:01;14.23;;;5.57;;
84293;SDS011;74463;51.182;3.210;2024-01-27T13:04:30;16.05;;;6.28;;
84293;SDS011;74463;51.182;3.210;2024-01-27T13:06:58;19.45;;;5.45;;
84293;SDS011;74463;51.182;3.210;2024-01-27T13:09:26;22.40;;;5.50;;
84293;SDS011;74463;51.182;3.210;2024-01-27T13:11:53;20.75;;;5.15;;
84293;SDS011;74463;51.182;3.210;2024-01-27T13:14:21;19.80;;;6.05;;
84293;SDS011;74463;51.182;3.210;2024-01-27T13:16:48;16.77;;;5.97;;
84293;SDS011;74463;51.182;3.210;2024-01-27T13:19:18;13.40;;;5.15;;
84293;SDS011;74463;51.182;3.210;2024-01-27T13:21:47;15.18;;;4.93;;
84293;SDS011;74463;51.182;3.210;2024-01-27T13:24:15;13.20;;;4.80;;
84293;SDS011;74463;51.182;3.210;2024-01-27T13:26:42;15.60;;;4.75;;
84293;SDS011;74463;51.182;3.210;2024-01-27T13:29:10;19.05;;;4.88;;
84293;SDS011;74463;51.182;3.210;2024-01-27T13:31:37;17.05;;;6.15;;
84293;SDS011;74463;51.182;3.210;2024-01-27T13:34:05;13.52;;;6.32;;
84293;SDS011;74463;51.182;3.210;2024-01-27T13:36:33;15.73;;;4.63;;
84293;SDS011;74463;51.182;3.210;2024-01-27T13:39:02;16.63;;;6.43;;
84293;SDS011;74463;51.182;3.210;2024-01-27T13:41:30;24.40;;;8.25;;
84293;SDS011;74463;51.182;3.210;2024-01-27T13:43:58;19.48;;;6.05;;
84293;SDS011;74463;51.182;3.210;2024-01-27T13:46:25;23.10;;;5.82;;
84293;SDS011;74463;51.182;3.210;2024-01-27T13:48:52;11.82;;;5.63;;
84293;SDS011;74463;51.182;3.210;2024-01-27T13:51:20;19.27;;;6.30;;
84293;SDS011;74463;51.182;3.210;2024-01-27T13:53:47;19.73;;;5.40;;
84293;SDS011;74463;51.182;3.210;2024-01-27T13:56:16;21.65;;;6.32;;
84293;SDS011;74463;51.182;3.210;2024-01-27T13:58:44;16.05;;;4.53;;
84293;SDS011;74463;51.182;3.210;2024-01-27T14:01:13;13.30;;;4.13;;
84293;SDS011;74463;51.182;3.210;2024-01-27T14:03:41;11.77;;;4.38;;
84293;SDS011;74463;51.182;3.210;2024-01-27T14:06:08;16.60;;;5.05;;
84293;SDS011;74463;51.182;3.210;2024-01-27T14:08:37;15.30;;;5.90;;
84293;SDS011;74463;51.182;3.210;2024-01-27T14:11:06;23.15;;;5.20;;
84293;SDS011;74463;51.182;3.210;2024-01-27T14:13:35;19.90;;;4.88;;
84293;SDS011;74463;51.182;3.210;2024-01-27T14:16:03;15.88;;;5.57;;
84293;SDS011;74463;51.182;3.210;2024-01-27T14:18:30;24.08;;;7.20;;
84293;SDS011;74463;51.182;3.210;2024-01-27T14:20:58;18.63;;;6.50;;
84293;SDS011;74463;51.182;3.210;2024-01-27T14:23:25;15.73;;;5.60;;
84293;SDS011;74463;51.182;3.210;2024-01-27T14:25:53;19.17;;;6.47;;
84293;SDS011;74463;51.182;3.210;2024-01-27T14:28:22;16.23;;;5.65;;
84293;SDS011;74463;51.182;3.210;2024-01-27T14:30:50;16.70;;;5.68;;
84293;SDS011;74463;51.182;3.210;2024-01-27T14:33:18;14.38;;;6.78;;
84293;SDS011;74463;51.182;3.210;2024-01-27T14:35:46;20.88;;;5.32;;
84293;SDS011;74463;51.182;3.210;2024-01-27T14:38:13;18.08;;;4.97;;
84293;SDS011;74463;51.182;3.210;2024-01-27T14:40:41;15.38;;;5.13;;
84293;SDS011;74463;51.182;3.210;2024-01-27T14:43:08;18.10;;;4.65;;
84293;SDS011;74463;51.182;3.210;2024-01-27T14:45:37;12.90;;;4.55;;
84293;SDS011;74463;51.182;3.210;2024-01-27T14:48:06;10.30;;;4.65;;